createdAt,value
2022-11-12T00:00:52.598Z,9.40
2022-11-12T00:03:19.904Z,9.35
2022-11-12T00:05:46.813Z,10.30
2022-11-12T00:08:13.475Z,10.15
2022-11-12T00:10:39.872Z,9.73
2022-11-12T00:13:06.488Z,10.07
2022-11-12T00:15:32.926Z,9.60
2022-11-12T00:17:59.353Z,9.38
2022-11-12T00:20:25.767Z,9.57
2022-11-12T00:22:52.160Z,10.02
2022-11-12T00:25:18.619Z,9.70
2022-11-12T00:27:45.045Z,9.90
2022-11-12T00:30:11.848Z,9.57
2022-11-12T00:32:38.297Z,9.63
2022-11-12T00:35:07.730Z,9.77
2022-11-12T00:37:36.244Z,9.85
2022-11-12T00:40:02.660Z,10.10
2022-11-12T00:42:29.042Z,9.55
2022-11-12T00:44:55.443Z,9.93
2022-11-12T00:47:21.829Z,9.98
2022-11-12T00:49:48.212Z,10.52
2022-11-12T00:52:14.667Z,9.27
2022-11-12T00:54:41.026Z,10.43
2022-11-12T00:57:07.385Z,10.18
2022-11-12T00:59:33.775Z,9.20
2022-11-12T01:02:00.171Z,10.02
2022-11-12T01:04:26.814Z,9.77
2022-11-12T01:06:53.289Z,9.80
2022-11-12T01:09:19.693Z,10.07
2022-11-12T01:11:46.156Z,10.85
2022-11-12T01:14:12.774Z,10.15
2022-11-12T01:16:40.538Z,10.10
2022-11-12T01:19:09.394Z,10.13
2022-11-12T01:21:42.451Z,10.10
2022-11-12T01:24:09.608Z,10.23
2022-11-12T01:26:36.739Z,10.70
2022-11-12T01:29:04.579Z,11.40
2022-11-12T01:31:33.762Z,11.15
2022-11-12T01:34:03.202Z,11.75
2022-11-12T01:36:34.066Z,11.25
2022-11-12T01:39:00.546Z,11.70
2022-11-12T01:41:31.366Z,12.43
2022-11-12T01:44:11.702Z,11.52
2022-11-12T01:46:47.171Z,11.43
2022-11-12T01:49:27.998Z,11.02
2022-11-12T01:51:58.214Z,12.20
2022-11-12T01:54:26.400Z,12.13
2022-11-12T01:56:53.055Z,11.80
2022-11-12T01:59:25.163Z,11.43
2022-11-12T02:01:54.514Z,11.13
2022-11-12T02:04:21.050Z,11.52
2022-11-12T02:06:48.793Z,11.35
2022-11-12T02:09:15.468Z,12.38
2022-11-12T02:11:41.869Z,12.68
2022-11-12T02:14:08.737Z,12.35
2022-11-12T02:16:44.423Z,12.65
2022-11-12T02:19:13.810Z,13.13
2022-11-12T02:21:40.642Z,13.13
2022-11-12T02:24:13.218Z,13.20
2022-11-12T02:26:51.616Z,12.75
2022-11-12T02:29:18.038Z,14.13
2022-11-12T02:31:44.474Z,13.50
2022-11-12T02:34:10.885Z,13.77
2022-11-12T02:36:37.312Z,13.63
2022-11-12T02:39:04.107Z,13.45
2022-11-12T02:41:30.590Z,14.48
2022-11-12T02:43:57.020Z,14.80
2022-11-12T02:46:23.503Z,14.20
2022-11-12T02:48:49.895Z,14.13
2022-11-12T02:51:16.265Z,14.25
2022-11-12T02:53:42.649Z,15.80
2022-11-12T02:56:08.998Z,15.35
2022-11-12T02:58:35.474Z,15.35
2022-11-12T03:01:02.013Z,14.82
2022-11-12T03:03:28.506Z,14.55
2022-11-12T03:05:58.147Z,14.02
2022-11-12T03:08:25.505Z,15.65
2022-11-12T03:10:52.508Z,15.13
2022-11-12T03:13:19.568Z,15.55
2022-11-12T03:15:46.465Z,15.38
2022-11-12T03:18:12.953Z,14.80
2022-11-12T03:20:39.461Z,15.82
2022-11-12T03:23:08.297Z,15.23
2022-11-12T03:25:35.636Z,14.63
2022-11-12T03:28:10.790Z,15.75
2022-11-12T03:30:39.387Z,15.60
2022-11-12T03:33:07.427Z,15.60
2022-11-12T03:35:34.829Z,16.23
2022-11-12T03:38:01.951Z,15.88
2022-11-12T03:40:28.968Z,16.02
2022-11-12T03:42:55.624Z,16.00
2022-11-12T03:45:23.872Z,16.02
2022-11-12T03:47:52.559Z,15.07
2022-11-12T03:50:20.914Z,15.85
2022-11-12T03:52:51.210Z,15.80
2022-11-12T03:55:20.622Z,16.63
2022-11-12T03:57:52.377Z,15.32
2022-11-12T04:00:20.249Z,16.10
2022-11-12T04:02:46.719Z,16.27
2022-11-12T04:05:32.268Z,16.08
2022-11-12T04:08:19.274Z,14.95
2022-11-12T04:10:45.642Z,15.30
2022-11-12T04:13:27.534Z,15.68
2022-11-12T04:16:13.513Z,16.38
2022-11-12T04:18:59.006Z,15.70
2022-11-12T04:21:56.477Z,15.80
2022-11-12T04:24:45.755Z,16.52
2022-11-12T04:27:19.292Z,16.73
2022-11-12T04:30:05.333Z,15.52
2022-11-12T04:32:34.524Z,16.02
2022-11-12T04:35:01.405Z,17.17
2022-11-12T04:37:44.177Z,15.73
2022-11-12T04:40:38.571Z,15.93
2022-11-12T04:43:25.278Z,17.35
2022-11-12T04:45:53.722Z,15.43
2022-11-12T04:48:21.946Z,15.77
2022-11-12T04:50:53.412Z,15.98
2022-11-12T04:53:20.116Z,16.48
2022-11-12T04:55:50.087Z,15.80
2022-11-12T04:58:16.553Z,16.73
2022-11-12T05:00:42.915Z,14.95
2022-11-12T05:03:09.347Z,15.77
2022-11-12T05:05:35.777Z,15.68
2022-11-12T05:08:03.328Z,16.20
2022-11-12T05:10:30.557Z,16.35
2022-11-12T05:12:57.200Z,15.52
2022-11-12T05:15:23.840Z,15.93
2022-11-12T05:17:50.527Z,15.65
2022-11-12T05:20:17.391Z,16.75
2022-11-12T05:22:54.250Z,16.20
2022-11-12T05:25:30.370Z,15.98
2022-11-12T05:27:56.748Z,16.45
2022-11-12T05:30:23.134Z,16.20
2022-11-12T05:32:49.478Z,17.15
2022-11-12T05:35:15.851Z,16.42
2022-11-12T05:37:43.766Z,17.50
2022-11-12T05:40:10.423Z,16.33
2022-11-12T05:42:36.809Z,16.38
2022-11-12T05:45:03.476Z,16.73
2022-11-12T05:47:29.856Z,15.73
2022-11-12T05:49:56.243Z,15.90
2022-11-12T05:52:22.680Z,16.33
2022-11-12T05:54:49.036Z,16.00
2022-11-12T05:57:15.420Z,16.02
2022-11-12T05:59:41.845Z,15.27
2022-11-12T06:02:08.295Z,16.67
2022-11-12T06:04:34.793Z,16.48
2022-11-12T06:07:03.477Z,15.73
2022-11-12T06:09:29.923Z,16.25
2022-11-12T06:11:56.408Z,16.13
2022-11-12T06:14:22.742Z,17.17
2022-11-12T06:16:49.099Z,17.30
2022-11-12T06:19:15.515Z,16.05
2022-11-12T06:21:41.899Z,17.05
2022-11-12T06:24:08.763Z,16.50
2022-11-12T06:26:35.159Z,16.55
2022-11-12T06:29:01.540Z,16.75
2022-11-12T06:31:27.910Z,16.88
2022-11-12T06:33:54.297Z,15.90
2022-11-12T06:36:20.991Z,17.05
2022-11-12T06:38:47.606Z,16.00
2022-11-12T06:41:14.524Z,15.95
2022-11-12T06:43:41.638Z,16.80
2022-11-12T06:46:12.933Z,16.02
2022-11-12T06:48:39.807Z,16.58
2022-11-12T06:51:12.240Z,17.50
2022-11-12T06:53:38.637Z,15.70
2022-11-12T06:56:07.226Z,17.05
2022-11-12T06:58:33.848Z,17.38
2022-11-12T07:01:15.370Z,17.00
2022-11-12T07:03:43.200Z,17.20
2022-11-12T07:06:15.303Z,16.30
2022-11-12T07:08:42.190Z,17.65
2022-11-12T07:11:09.347Z,17.42
2022-11-12T07:13:36.715Z,17.83
2022-11-12T07:16:05.183Z,17.77
2022-11-12T07:18:32.616Z,16.55
2022-11-12T07:21:10.366Z,17.52
2022-11-12T07:23:37.206Z,17.15
2022-11-12T07:26:04.994Z,16.98
2022-11-12T07:28:31.919Z,16.52
2022-11-12T07:31:00.730Z,17.13
2022-11-12T07:33:28.559Z,17.10
2022-11-12T07:36:03.238Z,16.88
2022-11-12T07:38:31.022Z,17.40
2022-11-12T07:41:15.296Z,17.05
2022-11-12T07:43:45.017Z,16.30
2022-11-12T07:46:23.439Z,16.73
2022-11-12T07:48:50.318Z,17.10
2022-11-12T07:51:22.446Z,18.65
2022-11-12T07:53:53.750Z,16.63
2022-11-12T07:56:26.362Z,17.00
2022-11-12T07:58:53.222Z,18.15
2022-11-12T08:01:30.667Z,16.63
2022-11-12T08:03:58.224Z,17.63
2022-11-12T08:06:25.119Z,15.75
2022-11-12T08:08:53.245Z,17.52
2022-11-12T08:11:20.011Z,16.55
2022-11-12T08:13:46.594Z,16.40
2022-11-12T08:16:13.233Z,16.58
2022-11-12T08:18:39.938Z,16.70
2022-11-12T08:21:09.950Z,17.25
2022-11-12T08:23:36.337Z,17.35
2022-11-12T08:26:05.305Z,17.20
2022-11-12T08:28:36.412Z,16.45
2022-11-12T08:31:14.562Z,16.13
2022-11-12T08:33:42.104Z,16.42
2022-11-12T08:36:11.482Z,16.75
2022-11-12T08:38:39.066Z,17.77
2022-11-12T08:41:08.529Z,16.63
2022-11-12T08:43:35.738Z,17.73
2022-11-12T08:46:03.250Z,16.65
2022-11-12T08:48:31.018Z,17.33
2022-11-12T08:50:58.370Z,17.63
2022-11-12T08:53:25.493Z,17.58
2022-11-12T08:55:56.281Z,17.40
2022-11-12T08:58:24.147Z,17.40
2022-11-12T09:00:51.485Z,16.45
2022-11-12T09:03:20.632Z,17.15
2022-11-12T09:05:48.099Z,17.65
2022-11-12T09:08:25.696Z,16.33
2022-11-12T09:10:52.673Z,16.42
2022-11-12T09:13:19.804Z,16.02
2022-11-12T09:15:46.923Z,16.75
2022-11-12T09:18:16.611Z,15.95
2022-11-12T09:20:43.228Z,16.65
2022-11-12T09:23:12.771Z,17.08
2022-11-12T09:25:40.405Z,17.30
2022-11-12T09:28:17.442Z,17.15
2022-11-12T09:30:49.327Z,16.55
2022-11-12T09:33:20.927Z,17.17
2022-11-12T09:35:48.559Z,17.38
2022-11-12T09:38:15.349Z,17.02
2022-11-12T09:40:53.690Z,16.48
2022-11-12T09:43:27.428Z,16.60
2022-11-12T09:46:13.909Z,16.52
2022-11-12T09:48:51.747Z,17.33
2022-11-12T09:51:28.386Z,17.77
2022-11-12T09:54:01.954Z,16.90
2022-11-12T09:56:31.819Z,16.92
2022-11-12T09:58:58.374Z,16.75
2022-11-12T10:02:00.677Z,16.38
2022-11-12T10:04:52.132Z,17.15
2022-11-12T10:07:38.160Z,17.25
2022-11-12T10:10:18.187Z,17.05
2022-11-12T10:13:04.560Z,16.70
2022-11-12T10:16:25.440Z,17.40
2022-11-12T10:19:19.103Z,15.70
2022-11-12T10:22:17.250Z,15.52
2022-11-12T10:24:44.544Z,17.15
2022-11-12T10:27:18.460Z,17.10
2022-11-12T10:30:01.575Z,16.85
2022-11-12T10:32:28.060Z,17.02
2022-11-12T10:34:54.411Z,17.58
2022-11-12T10:37:27.699Z,16.95
2022-11-12T10:39:54.270Z,16.50
2022-11-12T10:42:22.760Z,16.70
2022-11-12T10:44:49.454Z,16.38
2022-11-12T10:47:23.356Z,16.60
2022-11-12T10:50:06.493Z,17.30
2022-11-12T10:52:32.946Z,17.15
2022-11-12T10:55:22.026Z,15.80
2022-11-12T10:58:04.443Z,16.45
2022-11-12T11:00:31.336Z,16.00
2022-11-12T11:02:58.935Z,16.88
2022-11-12T11:05:34.596Z,15.85
2022-11-12T11:08:01.973Z,16.25
2022-11-12T11:10:31.377Z,15.63
2022-11-12T11:13:16.566Z,16.00
2022-11-12T11:15:58.183Z,15.80
2022-11-12T11:18:25.367Z,16.38
2022-11-12T11:21:13.245Z,15.25
2022-11-12T11:23:56.012Z,15.10
2022-11-12T11:26:49.252Z,15.82
2022-11-12T11:29:30.614Z,15.02
2022-11-12T11:32:14.743Z,15.88
2022-11-12T11:35:05.419Z,15.32
2022-11-12T11:37:42.348Z,15.90
2022-11-12T11:40:26.629Z,14.50
2022-11-12T11:43:16.223Z,14.68
2022-11-12T11:46:02.364Z,14.67
2022-11-12T11:48:56.221Z,13.98
2022-11-12T11:51:42.626Z,13.80
2022-11-12T11:54:24.220Z,15.32
2022-11-12T11:56:54.217Z,15.10
2022-11-12T11:59:29.714Z,14.70
2022-11-12T12:02:31.492Z,14.80
2022-11-12T12:05:22.715Z,15.48
2022-11-12T12:07:54.538Z,15.25
2022-11-12T12:11:06.313Z,15.40
2022-11-12T12:13:44.847Z,14.65
2022-11-12T12:16:32.960Z,15.13
2022-11-12T12:19:24.311Z,14.88
2022-11-12T12:21:52.419Z,13.70
2022-11-12T12:24:31.018Z,14.50
2022-11-12T12:27:03.554Z,15.45
2022-11-12T12:29:49.167Z,14.68
2022-11-12T12:32:24.295Z,14.85
2022-11-12T12:35:29.473Z,14.85
2022-11-12T12:38:14.595Z,14.18
2022-11-12T12:40:58.723Z,13.73
2022-11-12T12:43:41.657Z,13.43
2022-11-12T12:46:12.544Z,13.55
2022-11-12T12:48:42.691Z,13.73
2022-11-12T12:51:09.468Z,13.80
2022-11-12T12:53:36.520Z,13.68
2022-11-12T12:56:26.995Z,13.55
2022-11-12T13:01:19.832Z,12.68
2022-11-12T13:03:57.552Z,13.15
2022-11-12T13:06:23.907Z,12.18
2022-11-12T13:08:54.730Z,13.50
2022-11-12T13:12:02.115Z,13.38
2022-11-12T13:14:31.219Z,13.70
2022-11-12T13:16:59.996Z,13.70
2022-11-12T13:19:30.372Z,13.38
2022-11-12T13:25:04.272Z,13.52
2022-11-12T13:27:50.883Z,12.98
2022-11-12T13:30:20.789Z,12.90
2022-11-12T13:32:47.224Z,13.20
2022-11-12T13:35:16.731Z,12.98
2022-11-12T13:37:45.299Z,12.50
2022-11-12T13:40:14.775Z,13.02
2022-11-12T13:42:50.501Z,12.47
2022-11-12T13:45:19.440Z,13.05
2022-11-12T13:47:52.934Z,13.85
2022-11-12T13:50:22.506Z,13.20
2022-11-12T13:52:49.741Z,13.63
2022-11-12T13:55:17.161Z,12.88
2022-11-12T13:57:53.939Z,13.85
2022-11-12T14:00:23.530Z,13.43
2022-11-12T14:03:00.920Z,13.35
2022-11-12T14:05:32.552Z,12.65
2022-11-12T14:08:05.845Z,12.30
2022-11-12T14:10:46.495Z,12.30
2022-11-12T14:13:26.536Z,12.48
2022-11-12T14:16:11.737Z,13.18
2022-11-12T14:18:56.791Z,12.70
2022-11-12T14:21:23.312Z,13.05
2022-11-12T14:23:50.157Z,12.50
2022-11-12T14:26:45.486Z,12.60
2022-11-12T14:29:19.228Z,12.45
2022-11-12T14:31:46.399Z,12.15
2022-11-12T14:34:20.465Z,13.13
2022-11-12T14:51:14.166Z,14.65
2022-11-12T14:54:03.920Z,14.48
2022-11-12T14:56:38.195Z,14.35
2022-11-12T14:59:05.293Z,14.95
2022-11-12T15:02:14.302Z,14.90
2022-11-12T15:04:26.005Z,14.48
2022-11-12T15:06:54.429Z,15.32
2022-11-12T15:09:38.421Z,14.25
2022-11-12T15:12:09.030Z,14.77
2022-11-12T15:14:35.692Z,13.00
2022-11-12T15:17:04.682Z,14.18
2022-11-12T15:19:31.711Z,13.52
2022-11-12T15:22:03.476Z,14.07
2022-11-12T15:24:35.111Z,12.20
2022-11-12T15:27:22.840Z,12.40
2022-11-12T15:29:49.235Z,12.60
2022-11-12T15:32:15.606Z,12.38
2022-11-12T15:34:41.966Z,12.80
2022-11-12T15:37:13.026Z,12.70
2022-11-12T15:39:43.232Z,13.15
2022-11-12T15:42:32.327Z,13.52
2022-11-12T15:45:04.890Z,14.38
2022-11-12T15:47:31.271Z,13.57
2022-11-12T15:50:01.567Z,14.85
2022-11-12T15:52:27.950Z,15.23
2022-11-12T15:54:54.629Z,14.57
2022-11-12T15:57:27.761Z,13.88
2022-11-12T16:00:21.607Z,13.07
2022-11-12T16:03:05.553Z,14.88
2022-11-12T16:05:31.968Z,14.05
2022-11-12T16:07:58.327Z,14.45
2022-11-12T16:10:25.606Z,14.98
2022-11-12T16:12:53.036Z,14.25
2022-11-12T16:15:28.167Z,14.77
2022-11-12T16:17:56.008Z,14.68
2022-11-12T16:20:28.501Z,13.90
2022-11-12T16:22:55.748Z,15.15
2022-11-12T16:25:23.034Z,15.02
2022-11-12T16:27:55.591Z,16.08
2022-11-12T16:30:32.183Z,16.77
2022-11-12T16:32:59.847Z,16.00
2022-11-12T16:35:27.198Z,16.98
2022-11-12T16:37:54.980Z,16.05
2022-11-12T16:40:27.162Z,15.60
2022-11-12T16:42:53.771Z,15.02
2022-11-12T16:45:23.601Z,15.93
2022-11-12T16:47:55.232Z,14.65
2022-11-12T16:50:25.588Z,14.77
2022-11-12T16:52:55.522Z,14.95
2022-11-12T16:55:22.352Z,15.38
2022-11-12T16:57:48.699Z,14.13
2022-11-12T17:00:17.657Z,13.80
2022-11-12T17:02:48.192Z,13.82
2022-11-12T17:05:24.413Z,12.70
2022-11-12T17:07:55.698Z,13.20
2022-11-12T17:10:25.362Z,12.77
2022-11-12T17:12:52.688Z,13.48
2022-11-12T17:15:19.567Z,12.55
2022-11-12T17:17:45.983Z,12.48
2022-11-12T17:20:12.504Z,14.15
2022-11-12T17:22:38.851Z,14.95
2022-11-12T17:25:06.680Z,14.20
2022-11-12T17:27:33.280Z,13.45
2022-11-12T17:29:59.667Z,14.55
2022-11-12T17:32:26.370Z,15.43
2022-11-12T17:34:52.798Z,14.35
2022-11-12T17:37:19.335Z,15.00
2022-11-12T17:39:46.100Z,14.63
2022-11-12T17:42:12.533Z,14.13
2022-11-12T17:44:39.194Z,14.20
2022-11-12T17:47:05.665Z,14.80
2022-11-12T17:49:32.321Z,14.20
2022-11-12T17:52:00.436Z,14.77
2022-11-12T17:54:27.129Z,14.68
2022-11-12T17:56:53.601Z,14.02
2022-11-12T17:59:20.280Z,14.07
2022-11-12T18:01:46.735Z,13.90
2022-11-12T18:04:13.219Z,13.90
2022-11-12T18:06:39.886Z,15.00
2022-11-12T18:09:17.057Z,14.50
2022-11-12T18:11:46.013Z,14.23
2022-11-12T18:14:13.078Z,15.48
2022-11-12T18:16:39.708Z,14.38
2022-11-12T18:19:10.627Z,14.68
2022-11-12T18:21:40.713Z,14.73
2022-11-12T18:24:13.252Z,14.18
2022-11-12T18:26:39.838Z,15.63
2022-11-12T18:29:07.359Z,15.13
2022-11-12T18:31:33.915Z,14.07
2022-11-12T18:34:00.367Z,13.55
2022-11-12T18:36:26.856Z,13.13
2022-11-12T18:38:54.767Z,12.23
2022-11-12T18:41:25.625Z,13.02
2022-11-12T18:43:53.206Z,11.57
2022-11-12T18:46:19.660Z,12.43
2022-11-12T18:48:47.378Z,12.57
2022-11-12T18:51:16.698Z,13.45
2022-11-12T18:53:43.768Z,13.38
2022-11-12T18:56:19.648Z,15.85
2022-11-12T18:58:46.531Z,13.02
2022-11-12T19:01:20.812Z,13.93
2022-11-12T19:03:48.146Z,14.20
2022-11-12T19:06:15.257Z,13.13
2022-11-12T19:08:41.960Z,13.30
2022-11-12T19:11:13.545Z,12.52
2022-11-12T19:13:40.968Z,13.30
2022-11-12T19:16:11.645Z,12.70
2022-11-12T19:18:39.505Z,12.75
2022-11-12T19:21:18.315Z,12.25
2022-11-12T19:23:47.008Z,12.50
2022-11-12T19:26:17.291Z,12.75
2022-11-12T19:28:44.795Z,15.20
2022-11-12T19:31:19.529Z,13.20
2022-11-12T19:33:46.771Z,13.68
2022-11-12T19:36:16.882Z,14.38
2022-11-12T19:38:43.708Z,13.90
2022-11-12T19:41:18.788Z,13.45
2022-11-12T19:43:46.095Z,12.93
2022-11-12T19:46:12.611Z,14.63
2022-11-12T19:48:39.202Z,14.88
2022-11-12T19:51:07.706Z,15.52
2022-11-12T19:53:36.283Z,14.85
2022-11-12T19:56:04.802Z,14.35
2022-11-12T19:58:34.442Z,14.38
2022-11-12T20:01:05.807Z,14.02
2022-11-12T20:03:32.801Z,13.93
2022-11-12T20:06:07.545Z,15.63
2022-11-12T20:08:34.395Z,15.35
2022-11-12T20:11:01.862Z,14.80
2022-11-12T20:13:28.990Z,15.93
2022-11-12T20:15:56.042Z,15.68
2022-11-12T20:18:23.016Z,16.58
2022-11-12T20:20:55.491Z,14.68
2022-11-12T20:23:26.361Z,15.20
2022-11-12T20:25:53.953Z,14.73
2022-11-12T20:28:20.819Z,14.73
2022-11-12T20:30:47.381Z,15.80
2022-11-12T20:33:14.209Z,18.58
2022-11-12T20:35:40.608Z,16.52
2022-11-12T20:38:06.977Z,16.40
2022-11-12T20:40:33.470Z,19.08
2022-11-12T20:42:59.864Z,15.35
2022-11-12T20:45:27.117Z,18.13
2022-11-12T20:47:56.147Z,16.33
2022-11-12T20:50:22.654Z,14.20
2022-11-12T20:52:49.060Z,15.35
2022-11-12T20:55:15.546Z,14.02
2022-11-12T20:57:41.909Z,14.82
2022-11-12T21:00:13.576Z,15.63
2022-11-12T21:02:40.654Z,14.40
2022-11-12T21:05:07.716Z,13.20
2022-11-12T21:07:34.118Z,13.38
2022-11-12T21:10:00.697Z,13.90
2022-11-12T21:12:27.114Z,13.63
2022-11-12T21:14:53.541Z,14.02
2022-11-12T21:17:19.968Z,12.98
2022-11-12T21:19:46.568Z,13.32
2022-11-12T21:22:15.363Z,13.60
2022-11-12T21:24:41.733Z,13.60
2022-11-12T21:27:08.160Z,13.40
2022-11-12T21:29:35.726Z,12.82
2022-11-12T21:32:02.166Z,13.43
2022-11-12T21:34:29.081Z,13.35
2022-11-12T21:36:55.433Z,12.77
2022-11-12T21:39:21.811Z,12.85
2022-11-12T21:41:48.160Z,14.05
2022-11-12T21:44:14.527Z,12.40
2022-11-12T21:46:41.062Z,12.70
2022-11-12T21:49:07.437Z,12.80
2022-11-12T21:51:33.925Z,11.85
2022-11-12T21:54:02.877Z,11.32
2022-11-12T21:56:30.283Z,12.75
2022-11-12T21:59:01.319Z,12.63
2022-11-12T22:01:29.932Z,12.80
2022-11-12T22:03:57.748Z,10.70
2022-11-12T22:06:26.795Z,10.00
2022-11-12T22:08:54.677Z,9.50
2022-11-12T22:11:22.068Z,10.40
2022-11-12T22:13:49.156Z,10.23
2022-11-12T22:16:20.192Z,10.90
2022-11-12T22:18:48.754Z,10.00
2022-11-12T22:21:20.991Z,9.60
2022-11-12T22:23:47.814Z,9.70
2022-11-12T22:26:18.409Z,10.32
2022-11-12T22:28:44.903Z,10.30
2022-11-12T22:31:22.705Z,9.85
2022-11-12T22:33:49.747Z,10.30
2022-11-12T22:36:21.579Z,10.20
2022-11-12T22:38:50.205Z,10.13
2022-11-12T22:41:22.892Z,10.80
2022-11-12T22:43:51.727Z,10.02
2022-11-12T22:46:20.755Z,10.30
2022-11-12T22:48:47.194Z,10.15
2022-11-12T22:51:16.117Z,10.30
2022-11-12T22:53:42.803Z,10.30
2022-11-12T22:56:12.787Z,10.60
2022-11-12T22:58:44.320Z,11.45
2022-11-12T23:01:20.134Z,12.23
2022-11-12T23:03:47.099Z,11.18
2022-11-12T23:06:13.855Z,11.90
2022-11-12T23:08:40.336Z,11.65
2022-11-12T23:11:09.500Z,11.45
2022-11-12T23:13:36.703Z,12.13
2022-11-12T23:16:10.047Z,10.93
2022-11-12T23:18:36.557Z,12.30
2022-11-12T23:21:13.188Z,12.90
2022-11-12T23:23:39.637Z,11.85
2022-11-12T23:26:13.306Z,12.23
2022-11-12T23:28:39.739Z,12.73
2022-11-12T23:31:11.735Z,12.07
2022-11-12T23:33:38.624Z,12.43
2022-11-12T23:36:09.713Z,11.85
2022-11-12T23:38:36.217Z,14.75
2022-11-12T23:41:06.529Z,12.68
2022-11-12T23:43:34.096Z,13.23
2022-11-12T23:46:00.644Z,12.90
2022-11-12T23:48:27.625Z,12.20
2022-11-12T23:51:04.855Z,13.40
2022-11-12T23:53:33.424Z,12.90
2022-11-12T23:56:00.547Z,13.05
2022-11-12T23:58:27.951Z,14.15
